createdAt,value
2023-04-21T00:15:43.342Z,6.27
2023-04-21T00:27:44.457Z,6.53
2023-04-21T00:30:22.301Z,6.80
2023-04-21T00:36:06.368Z,7.07
2023-04-21T00:42:04.268Z,6.75
2023-04-21T00:47:46.169Z,7.40
2023-04-21T00:50:52.766Z,8.23
2023-04-21T00:56:46.749Z,8.10
2023-04-21T00:59:39.255Z,8.30
2023-04-21T01:07:12.785Z,8.50
2023-04-21T01:12:52.564Z,8.13
2023-04-21T01:15:41.561Z,9.23
2023-04-21T01:18:50.806Z,8.87
2023-04-21T01:21:25.677Z,8.52
2023-04-21T01:24:53.069Z,8.85
2023-04-21T01:27:45.641Z,8.15
2023-04-21T01:30:53.609Z,8.55
2023-04-21T01:33:29.733Z,8.43
2023-04-21T01:36:07.994Z,8.63
2023-04-21T01:39:01.297Z,8.82
2023-04-21T01:41:57.267Z,8.80
2023-04-21T01:45:03.868Z,9.98
2023-04-21T01:48:04.426Z,9.30
2023-04-21T01:54:52.285Z,9.32
2023-04-21T02:04:55.814Z,9.37
2023-04-21T02:18:05.252Z,9.13
2023-04-21T02:24:11.305Z,10.55
2023-04-21T02:47:11.325Z,9.30
2023-04-21T02:50:39.396Z,9.45
2023-04-21T02:53:53.123Z,9.40
2023-04-21T02:56:52.415Z,9.10
2023-04-21T03:00:09.013Z,9.18
2023-04-21T03:02:52.158Z,10.20
2023-04-21T03:09:14.909Z,9.67
2023-04-21T03:16:57.624Z,9.15
2023-04-21T03:19:31.015Z,9.05
2023-04-21T03:21:48.190Z,9.75
2023-04-21T03:24:31.924Z,9.87
2023-04-21T03:27:54.203Z,9.45
2023-04-21T03:30:58.909Z,9.30
2023-04-21T03:34:14.402Z,9.48
2023-04-21T03:40:39.533Z,9.17
2023-04-21T03:43:25.469Z,9.73
2023-04-21T03:47:29.014Z,9.10
2023-04-21T03:50:00.318Z,9.90
2023-04-21T03:56:37.964Z,9.90
2023-04-21T04:19:50.157Z,9.82
2023-04-21T04:22:45.366Z,10.43
2023-04-21T04:26:41.309Z,8.73
2023-04-21T04:28:58.619Z,10.23
2023-04-21T04:31:45.942Z,10.57
2023-04-21T04:34:35.193Z,8.90
2023-04-21T04:37:15.401Z,9.75
2023-04-21T04:44:00.136Z,9.70
2023-04-21T04:47:04.060Z,10.25
2023-04-21T04:50:43.512Z,9.95
2023-04-21T04:56:47.499Z,10.10
2023-04-21T05:03:33.527Z,9.75
2023-04-21T05:05:52.413Z,9.48
2023-04-21T05:08:52.702Z,10.18
2023-04-21T05:11:42.429Z,9.95
2023-04-21T05:16:31.899Z,9.93
2023-04-21T05:17:46.051Z,10.75
2023-04-21T05:25:10.098Z,10.25
2023-04-21T05:28:53.133Z,10.55
2023-04-21T05:32:15.135Z,10.57
2023-04-21T05:35:32.453Z,10.57
2023-04-21T05:38:47.699Z,11.07
2023-04-21T05:43:18.143Z,11.00
2023-04-21T05:45:28.367Z,11.05
2023-04-21T05:48:43.198Z,11.50
2023-04-21T05:51:39.250Z,12.13
2023-04-21T05:54:22.597Z,12.15
2023-04-21T06:11:08.370Z,11.38
2023-04-21T06:13:51.034Z,12.18
2023-04-21T06:16:29.069Z,12.02
2023-04-21T06:19:44.643Z,11.90
2023-04-21T06:21:51.083Z,11.85
2023-04-21T06:24:39.284Z,11.82
2023-04-21T06:30:07.838Z,12.13
2023-04-21T06:32:44.130Z,11.50
2023-04-21T06:35:58.385Z,12.32
2023-04-21T06:41:37.211Z,12.00
2023-04-21T06:44:18.101Z,13.07
2023-04-21T06:46:45.127Z,12.13
2023-04-21T06:49:11.938Z,12.65
2023-04-21T06:51:38.789Z,13.15
2023-04-21T06:54:05.943Z,12.20
2023-04-21T06:56:32.882Z,13.60
2023-04-21T06:58:59.387Z,12.20
2023-04-21T07:01:26.314Z,13.23
2023-04-21T07:03:53.116Z,13.68
2023-04-21T07:06:19.771Z,12.43
2023-04-21T07:08:47.184Z,12.63
2023-04-21T07:11:13.717Z,11.03
2023-04-21T07:13:40.242Z,13.05
2023-04-21T07:16:06.843Z,12.98
2023-04-21T07:18:34.751Z,12.55
2023-04-21T07:21:01.507Z,12.80
2023-04-21T07:23:28.265Z,13.13
2023-04-21T07:25:54.825Z,12.75
2023-04-21T07:28:21.450Z,12.82
2023-04-21T07:30:48.179Z,13.15
2023-04-21T07:33:14.920Z,13.23
2023-04-21T07:35:41.554Z,14.13
2023-04-21T07:38:08.231Z,13.60
2023-04-21T07:40:34.829Z,13.25
2023-04-21T07:43:01.349Z,13.43
2023-04-21T07:45:27.950Z,13.00
2023-04-21T07:47:54.638Z,13.03
2023-04-21T07:50:21.289Z,14.40
2023-04-21T07:52:48.246Z,14.82
2023-04-21T07:55:15.246Z,13.20
2023-04-21T07:57:41.908Z,13.32
2023-04-21T08:00:09.626Z,14.00
2023-04-21T08:02:37.315Z,13.07
2023-04-21T08:05:04.181Z,13.40
2023-04-21T08:07:31.855Z,13.20
2023-04-21T08:09:58.529Z,12.88
2023-04-21T08:12:25.305Z,12.90
2023-04-21T08:14:51.977Z,13.73
2023-04-21T08:17:18.787Z,13.43
2023-04-21T08:19:45.461Z,14.38
2023-04-21T08:22:12.337Z,13.52
2023-04-21T08:24:38.909Z,14.23
2023-04-21T08:27:05.529Z,15.27
2023-04-21T08:29:32.076Z,14.10
2023-04-21T08:31:58.660Z,14.00
2023-04-21T08:34:27.332Z,14.23
2023-04-21T08:39:57.436Z,13.23
2023-04-21T08:42:24.007Z,12.65
2023-04-21T08:44:53.520Z,14.15
2023-04-21T08:47:22.250Z,12.60
2023-04-21T08:49:50.709Z,13.90
2023-04-21T08:52:18.129Z,14.35
2023-04-21T08:54:44.817Z,14.45
2023-04-21T08:57:15.885Z,14.18
2023-04-21T08:59:43.331Z,14.63
2023-04-21T09:02:15.181Z,13.87
2023-04-21T09:04:44.282Z,13.80
2023-04-21T09:07:11.779Z,13.23
2023-04-21T09:09:57.186Z,13.57
2023-04-21T09:12:24.511Z,13.80
2023-04-21T09:14:51.483Z,13.93
2023-04-21T09:17:19.111Z,13.70
2023-04-21T09:19:47.376Z,13.93
2023-04-21T09:22:17.917Z,13.82
2023-04-21T09:24:50.457Z,13.95
2023-04-21T09:27:17.404Z,13.77
2023-04-21T09:29:50.943Z,14.13
2023-04-21T09:32:19.051Z,13.85
2023-04-21T09:34:46.559Z,12.88
2023-04-21T09:37:20.232Z,13.30
2023-04-21T09:40:04.007Z,12.80
2023-04-21T09:42:39.677Z,12.60
2023-04-21T09:45:28.869Z,12.85
2023-04-21T09:47:59.234Z,13.55
2023-04-21T09:50:54.386Z,12.25
2023-04-21T09:53:18.388Z,11.83
2023-04-21T09:55:52.106Z,12.13
2023-04-21T09:58:22.633Z,12.30
2023-04-21T10:00:51.227Z,13.40
2023-04-21T10:03:20.245Z,12.85
2023-04-21T10:05:54.766Z,12.50
2023-04-21T10:08:23.882Z,12.70
2023-04-21T10:10:52.998Z,11.80
2023-04-21T10:13:19.870Z,12.88
2023-04-21T10:15:46.576Z,13.23
2023-04-21T10:18:21.012Z,14.47
2023-04-21T10:21:01.722Z,12.70
2023-04-21T10:23:44.809Z,13.32
2023-04-21T10:26:35.488Z,13.05
2023-04-21T10:29:06.324Z,12.40
2023-04-21T10:31:51.964Z,13.67
2023-04-21T10:34:30.625Z,12.43
2023-04-21T10:37:01.296Z,12.00
2023-04-21T10:39:42.627Z,13.13
2023-04-21T10:42:29.849Z,12.85
2023-04-21T10:44:57.477Z,12.37
2023-04-21T10:47:44.376Z,12.63
2023-04-21T10:50:28.624Z,13.48
2023-04-21T10:53:13.733Z,13.25
2023-04-21T10:55:43.547Z,13.45
2023-04-21T10:58:16.649Z,12.60
2023-04-21T11:00:45.599Z,13.10
2023-04-21T11:03:14.607Z,13.93
2023-04-21T11:05:42.259Z,13.23
2023-04-21T11:08:14.699Z,12.95
2023-04-21T11:10:55.063Z,13.87
2023-04-21T11:13:35.412Z,13.85
2023-04-21T11:16:15.683Z,14.10
2023-04-21T11:18:44.658Z,13.30
2023-04-21T11:21:20.219Z,13.98
2023-04-21T11:23:56.522Z,13.57
2023-04-21T11:26:34.384Z,13.02
2023-04-21T11:29:06.232Z,13.88
2023-04-21T11:31:36.517Z,13.15
2023-04-21T11:34:07.109Z,13.82
2023-04-21T11:36:39.279Z,13.77
2023-04-21T11:39:11.220Z,12.82
2023-04-21T11:41:49.017Z,13.45
2023-04-21T11:44:33.840Z,13.43
2023-04-21T11:47:03.842Z,12.65
2023-04-21T11:49:35.492Z,12.23
2023-04-21T11:52:02.191Z,12.68
2023-04-21T11:54:34.092Z,12.98
2023-04-21T11:57:03.079Z,13.25
2023-04-21T11:59:29.891Z,12.25
2023-04-21T12:01:57.247Z,11.93
2023-04-21T12:04:36.963Z,12.60
2023-04-21T12:07:08.321Z,12.23
2023-04-21T12:09:36.511Z,12.52
2023-04-21T12:12:06.659Z,12.68
2023-04-21T12:14:35.240Z,11.07
2023-04-21T12:17:02.069Z,11.55
2023-04-21T12:19:40.840Z,12.00
2023-04-21T12:22:26.214Z,11.65
2023-04-21T12:24:52.927Z,11.65
2023-04-21T12:27:24.377Z,11.40
2023-04-21T12:29:53.730Z,11.95
2023-04-21T12:32:27.936Z,12.00
2023-04-21T12:34:58.835Z,11.20
2023-04-21T12:37:29.457Z,10.95
2023-04-21T12:39:58.335Z,9.83
2023-04-21T12:42:27.502Z,10.75
2023-04-21T12:44:56.855Z,10.35
2023-04-21T12:47:26.986Z,10.98
2023-04-21T12:49:56.406Z,11.52
2023-04-21T12:52:30.354Z,11.77
2023-04-21T12:54:59.289Z,11.52
2023-04-21T12:57:26.061Z,12.35
2023-04-21T12:59:57.220Z,12.70
2023-04-21T13:02:24.032Z,13.27
2023-04-21T13:04:50.869Z,13.17
2023-04-21T13:07:28.486Z,11.98
2023-04-21T13:10:04.677Z,12.55
2023-04-21T13:12:31.511Z,11.68
2023-04-21T13:15:02.282Z,12.70
2023-04-21T13:17:32.673Z,12.80
2023-04-21T13:20:02.095Z,12.50
2023-04-21T13:22:31.048Z,12.80
2023-04-21T13:25:00.306Z,12.25
2023-04-21T13:27:53.365Z,12.40
2023-04-21T13:30:22.775Z,13.03
2023-04-21T13:32:54.372Z,13.88
2023-04-21T13:35:21.241Z,13.30
2023-04-21T13:37:49.418Z,13.63
2023-04-21T13:40:22.265Z,14.05
2023-04-21T13:42:51.873Z,14.43
2023-04-21T13:45:26.570Z,13.68
2023-04-21T13:47:58.628Z,13.60
2023-04-21T13:50:36.088Z,13.65
2023-04-21T13:53:06.187Z,13.52
2023-04-21T13:55:32.992Z,13.40
2023-04-21T13:58:10.329Z,13.50
2023-04-21T14:00:40.353Z,12.32
2023-04-21T14:03:10.147Z,13.23
2023-04-21T14:05:41.459Z,13.50
2023-04-21T14:08:10.625Z,13.03
2023-04-21T14:11:20.755Z,12.52
2023-04-21T14:14:08.432Z,11.82
2023-04-21T14:16:53.693Z,11.38
2023-04-21T14:19:27.990Z,10.88
2023-04-21T14:22:00.470Z,10.97
2023-04-21T14:24:32.659Z,11.40
2023-04-21T14:27:02.478Z,10.40
2023-04-21T14:29:46.397Z,9.80
2023-04-21T14:32:24.382Z,10.00
2023-04-21T14:35:01.435Z,9.47
2023-04-21T14:37:53.968Z,9.68
2023-04-21T14:40:35.601Z,8.75
2023-04-21T14:43:16.403Z,9.20
2023-04-21T14:45:53.933Z,9.30
2023-04-21T14:48:24.014Z,9.13
2023-04-21T14:51:13.696Z,9.80
2023-04-21T14:53:57.534Z,9.95
2023-04-21T14:56:24.425Z,10.43
2023-04-21T14:58:51.281Z,9.95
2023-04-21T15:01:37.260Z,9.50
2023-04-21T15:04:06.806Z,9.15
2023-04-21T15:07:25.326Z,11.25
2023-04-21T15:12:44.201Z,10.57
2023-04-21T15:15:14.301Z,10.83
2023-04-21T15:17:55.817Z,10.73
2023-04-21T15:20:43.964Z,10.20
2023-04-21T15:23:21.134Z,10.57
2023-04-21T15:26:16.485Z,11.25
2023-04-21T15:28:55.953Z,10.63
2023-04-21T15:31:34.643Z,11.07
2023-04-21T15:34:07.853Z,11.32
2023-04-21T15:36:37.228Z,11.30
2023-04-21T15:39:06.552Z,11.27
2023-04-21T15:41:33.182Z,11.10
2023-04-21T15:45:46.793Z,11.00
2023-04-21T15:48:16.623Z,11.82
2023-04-21T15:50:45.538Z,11.02
2023-04-21T15:53:12.418Z,11.35
2023-04-21T15:55:39.734Z,11.97
2023-04-21T15:58:08.835Z,12.45
2023-04-21T16:00:35.638Z,12.13
2023-04-21T16:03:07.133Z,11.85
2023-04-21T16:05:34.216Z,12.35
2023-04-21T16:08:01.143Z,11.77
2023-04-21T16:10:28.300Z,11.80
2023-04-21T16:12:55.159Z,11.98
2023-04-21T16:15:24.777Z,11.85
2023-04-21T16:17:52.750Z,12.32
2023-04-21T16:20:19.681Z,11.33
2023-04-21T16:22:48.436Z,11.77
2023-04-21T16:25:18.513Z,12.20
2023-04-21T16:27:48.004Z,11.38
2023-04-21T16:30:18.358Z,11.20
2023-04-21T16:32:47.937Z,11.10
2023-04-21T16:35:14.724Z,10.40
2023-04-21T16:37:44.136Z,11.45
2023-04-21T16:40:11.601Z,12.00
2023-04-21T16:42:41.438Z,11.38
2023-04-21T16:45:11.040Z,11.37
2023-04-21T16:47:41.823Z,11.35
2023-04-21T16:50:11.572Z,11.30
2023-04-21T16:52:38.333Z,11.60
2023-04-21T16:55:05.341Z,11.48
2023-04-21T16:57:43.343Z,11.50
2023-04-21T17:00:11.477Z,10.95
2023-04-21T17:02:38.543Z,11.82
2023-04-21T17:05:05.796Z,11.18
2023-04-21T17:07:33.329Z,10.88
2023-04-21T17:10:02.420Z,11.53
2023-04-21T17:12:31.318Z,11.23
2023-04-21T17:14:58.073Z,10.55
2023-04-21T17:17:24.792Z,10.68
2023-04-21T17:19:53.521Z,10.80
2023-04-21T17:22:20.231Z,11.03
2023-04-21T17:24:53.297Z,10.45
2023-04-21T17:27:21.397Z,10.98
2023-04-21T17:29:48.499Z,11.32
2023-04-21T17:32:15.488Z,11.88
2023-04-21T17:34:42.357Z,11.43
2023-04-21T17:37:09.331Z,13.27
2023-04-21T17:39:37.528Z,11.15
2023-04-21T17:42:04.981Z,12.43
2023-04-21T17:44:31.771Z,11.65
2023-04-21T17:47:03.270Z,12.27
2023-04-21T17:49:29.991Z,12.25
2023-04-21T17:51:56.636Z,10.93
2023-04-21T17:54:23.330Z,11.13
2023-04-21T17:56:50.407Z,11.02
2023-04-21T17:59:18.431Z,11.20
2023-04-21T18:01:45.058Z,10.93
2023-04-21T18:04:12.099Z,11.85
2023-04-21T18:06:40.330Z,11.32
2023-04-21T18:09:07.304Z,11.52
2023-04-21T18:11:34.108Z,11.93
2023-04-21T18:14:00.683Z,12.48
2023-04-21T18:16:27.630Z,5.72
2023-04-21T18:18:54.214Z,2.95
2023-04-21T18:21:21.329Z,3.10
2023-04-21T18:23:48.252Z,3.57
2023-04-21T18:26:14.863Z,3.13
2023-04-21T18:28:41.551Z,3.08
2023-04-21T18:31:08.338Z,2.78
2023-04-21T18:33:34.988Z,3.60
2023-04-21T18:36:03.969Z,2.93
2023-04-21T18:39:04.654Z,3.33
2023-04-21T19:00:06.129Z,3.10
2023-04-21T19:02:43.650Z,3.08
2023-04-21T19:05:15.061Z,2.97
2023-04-21T19:07:49.182Z,3.42
2023-04-21T19:10:15.803Z,3.30
2023-04-21T19:12:42.317Z,3.15
2023-04-21T19:15:09.394Z,3.20
2023-04-21T19:17:35.932Z,3.60
2023-04-21T19:20:02.485Z,3.92
2023-04-21T19:22:31.964Z,3.50
2023-04-21T19:24:58.567Z,3.80
2023-04-21T19:27:25.209Z,3.53
2023-04-21T19:29:51.732Z,3.27
2023-04-21T19:32:18.400Z,4.05
2023-04-21T19:34:45.090Z,3.90
2023-04-21T19:37:11.714Z,4.97
2023-04-21T19:39:38.358Z,4.30
2023-04-21T19:42:07.096Z,4.30
2023-04-21T19:44:35.621Z,4.43
2023-04-21T19:47:03.896Z,3.95
2023-04-21T19:49:30.627Z,4.70
2023-04-21T19:52:03.397Z,4.68
2023-04-21T19:54:30.044Z,4.37
2023-04-21T19:56:56.765Z,4.53
2023-04-21T19:59:23.409Z,4.47
2023-04-21T20:01:52.341Z,4.38
2023-04-21T20:04:21.229Z,4.57
2023-04-21T20:06:52.546Z,4.70
2023-04-21T20:09:19.252Z,4.72
2023-04-21T20:11:48.072Z,5.00
2023-04-21T20:14:16.933Z,4.95
2023-04-21T20:16:46.658Z,5.03
2023-04-21T20:19:13.441Z,6.67
2023-04-21T20:21:46.727Z,5.82
2023-04-21T20:24:13.480Z,5.53
2023-04-21T20:26:40.118Z,5.88
2023-04-21T20:29:08.101Z,5.38
2023-04-21T20:31:34.875Z,5.80
2023-04-21T20:34:03.858Z,5.88
2023-04-21T20:36:44.436Z,6.38
2023-04-21T20:39:11.629Z,5.50
2023-04-21T20:41:38.978Z,5.20
2023-04-21T20:44:06.283Z,5.13
2023-04-21T20:46:35.474Z,5.38
2023-04-21T20:49:18.169Z,5.45
2023-04-21T20:52:01.853Z,6.00
2023-04-21T20:54:30.058Z,6.57
2023-04-21T20:56:56.941Z,5.90
2023-04-21T20:59:35.428Z,6.28
2023-04-21T21:02:28.448Z,5.57
2023-04-21T21:05:01.828Z,5.00
2023-04-21T21:07:30.047Z,4.88
2023-04-21T21:10:20.508Z,4.90
2023-04-21T21:12:51.051Z,3.92
2023-04-21T21:15:21.807Z,3.97
2023-04-21T21:17:50.712Z,4.10
2023-04-21T21:20:19.858Z,4.55
2023-04-21T21:22:51.548Z,3.93
2023-04-21T21:25:24.188Z,4.28
2023-04-21T21:27:56.460Z,4.53
2023-04-21T21:30:26.036Z,4.13
2023-04-21T21:32:59.915Z,3.60
2023-04-21T21:35:44.359Z,3.57
2023-04-21T21:38:11.149Z,3.50
2023-04-21T21:40:45.052Z,3.45
2023-04-21T21:43:11.724Z,3.55
2023-04-21T21:45:38.821Z,3.55
2023-04-21T21:48:26.038Z,3.20
2023-04-21T21:50:57.140Z,3.03
2023-04-21T21:53:25.289Z,3.20
2023-04-21T21:56:02.340Z,3.28
2023-04-21T21:58:35.119Z,2.97
2023-04-21T22:01:04.306Z,3.37
2023-04-21T22:03:38.522Z,3.13
2023-04-21T22:06:17.163Z,3.10
2023-04-21T22:08:55.266Z,3.20
2023-04-21T22:11:24.357Z,3.35
2023-04-21T22:14:00.699Z,3.30
2023-04-21T22:16:46.662Z,3.00
2023-04-21T22:19:20.391Z,2.95
2023-04-21T22:21:59.618Z,3.20
2023-04-21T22:24:28.602Z,3.17
2023-04-21T22:27:06.863Z,3.77
2023-04-21T22:29:40.370Z,3.15
2023-04-21T22:32:11.348Z,3.40
2023-04-21T22:34:58.968Z,3.70
2023-04-21T22:37:30.182Z,3.25
2023-04-21T22:40:01.666Z,3.23
2023-04-21T22:42:30.757Z,3.33
2023-04-21T22:45:07.535Z,4.03
2023-04-21T22:47:45.265Z,3.47
2023-04-21T22:50:27.083Z,4.03
2023-04-21T22:53:00.405Z,4.10
2023-04-21T22:55:37.218Z,3.35
2023-04-21T22:58:17.486Z,3.38
2023-04-21T23:00:55.425Z,3.50
2023-04-21T23:03:29.813Z,4.18
2023-04-21T23:06:01.931Z,3.90
2023-04-21T23:08:31.968Z,4.60
2023-04-21T23:11:17.278Z,3.25
2023-04-21T23:14:17.874Z,3.45
2023-04-21T23:17:13.940Z,3.50
2023-04-21T23:20:00.205Z,3.60
2023-04-21T23:22:31.727Z,3.70
2023-04-21T23:25:22.640Z,3.40
2023-04-21T23:27:56.494Z,3.97
2023-04-21T23:30:38.425Z,3.80
2023-04-21T23:33:23.762Z,4.17
2023-04-21T23:36:02.867Z,3.90
2023-04-21T23:38:40.290Z,3.85
2023-04-21T23:41:19.903Z,3.70
2023-04-21T23:43:53.517Z,3.10
2023-04-21T23:46:36.902Z,3.40
2023-04-21T23:49:09.549Z,3.22
2023-04-21T23:51:37.674Z,3.42
2023-04-21T23:54:22.153Z,4.03
2023-04-21T23:57:05.864Z,3.13
2023-04-21T23:59:41.596Z,2.77
